Time;durP1;ratioP1;P1;durP2;ratioP2;P2;SDS_P1;SDS_P2;PMS_P1;PMS_P2;Temp;Humidity;BMP_temperature;BMP_pressure;BME280_temperature;BME280_humidity;BME280_pressure;Samples;Min_cycle;Max_cycle;Signal;HPM_P1;HPM_P2
2023/02/23 00:02:07;;;;;;;11.00;5.90;;;;;;;-0.45;80.56;95643.87;106647;1277;25398;-75
2023/02/23 00:04:37;;;;;;;13.50;6.40;;;;;;;-0.33;80.40;95644.33;106623;1277;25399;-75
2023/02/23 00:07:05;;;;;;;10.10;6.00;;;;;;;-0.29;80.01;95644.09;106661;1277;24261;-75
2023/02/23 00:09:36;;;;;;;16.30;8.00;;;;;;;-0.30;79.57;95646.16;106519;1277;24450;-75
2023/02/23 00:12:08;;;;;;;15.70;6.60;;;;;;;-0.35;79.42;95647.91;106657;1277;22523;-75
2023/02/23 00:14:37;;;;;;;10.90;6.30;;;;;;;-0.37;79.42;95655.13;106509;1263;25403;-75
2023/02/23 00:17:13;;;;;;;13.60;6.90;;;;;;;-0.48;79.16;95655.55;106606;1277;22640;-75
2023/02/23 00:19:43;;;;;;;8.40;5.20;;;;;;;-0.62;80.15;95655.22;106547;1277;24261;-75
2023/02/23 00:22:11;;;;;;;14.20;6.50;;;;;;;-0.76;80.55;95656.59;106551;1277;25217;-75
2023/02/23 00:24:45;;;;;;;11.10;5.70;;;;;;;-0.87;80.95;95657.84;106528;1277;24091;-75
2023/02/23 00:27:19;;;;;;;13.40;6.90;;;;;;;-0.96;80.84;95652.77;106584;1266;22526;-76
2023/02/23 00:29:48;;;;;;;13.70;6.20;;;;;;;-0.92;80.98;95649.42;106626;1277;24196;-75
2023/02/23 00:32:19;;;;;;;13.40;6.30;;;;;;;-0.90;80.34;95649.46;106573;1277;25387;-76
2023/02/23 00:34:48;;;;;;;11.30;6.60;;;;;;;-0.90;80.18;95649.14;106521;1277;22524;-75
2023/02/23 00:37:18;;;;;;;9.50;5.80;;;;;;;-0.91;80.09;95645.30;106613;1277;24361;-76
2023/02/23 00:39:49;;;;;;;9.80;5.30;;;;;;;-0.99;80.09;95649.42;106666;1277;24249;-76
2023/02/23 00:42:17;;;;;;;12.10;5.30;;;;;;;-1.12;80.42;95651.15;106610;1277;22520;-76
2023/02/23 00:44:47;;;;;;;15.20;5.20;;;;;;;-1.16;80.64;95650.52;106538;1277;23892;-75
2023/02/23 00:47:15;;;;;;;13.00;5.80;;;;;;;-1.24;80.87;95650.98;106502;1277;22543;-76
2023/02/23 00:49:44;;;;;;;9.20;4.90;;;;;;;-1.24;80.81;95649.94;106506;1277;22539;-76
2023/02/23 00:52:13;;;;;;;10.90;5.80;;;;;;;-1.27;80.61;95646.59;106506;1277;22516;-75
2023/02/23 00:54:42;;;;;;;10.00;5.50;;;;;;;-1.30;81.18;95650.31;106534;1277;22848;-75
2023/02/23 00:57:10;;;;;;;12.00;6.40;;;;;;;-1.32;81.12;95650.41;106613;1277;22523;-75
2023/02/23 00:59:38;;;;;;;14.90;6.20;;;;;;;-1.32;81.60;95651.97;106483;1277;25478;-76
2023/02/23 01:02:06;;;;;;;9.80;5.80;;;;;;;-1.33;81.15;95647.83;106542;1277;22672;-76
2023/02/23 01:04:34;;;;;;;10.20;5.60;;;;;;;-1.29;81.04;95645.84;106525;1277;25378;-75
2023/02/23 01:07:05;;;;;;;10.00;5.90;;;;;;;-1.27;80.85;95646.58;106557;1277;25319;-75
2023/02/23 01:09:34;;;;;;;12.30;6.40;;;;;;;-1.28;80.90;95649.48;106553;1277;22797;-75
2023/02/23 01:12:06;;;;;;;10.90;6.10;;;;;;;-1.34;81.26;95649.01;106548;1277;24606;-76
2023/02/23 01:14:36;;;;;;;12.30;5.20;;;;;;;-1.37;81.75;95649.43;106280;1277;22526;-75
2023/02/23 01:17:06;;;;;;;11.10;5.20;;;;;;;-1.41;81.87;95649.14;106509;1256;25108;-76
2023/02/23 01:19:36;;;;;;;11.60;6.60;;;;;;;-1.44;81.30;95647.67;106545;1277;22630;-75
2023/02/23 01:22:04;;;;;;;16.00;9.10;;;;;;;-1.44;81.31;95647.31;106505;1277;22550;-75
2023/02/23 01:24:32;;;;;;;12.20;6.90;;;;;;;-1.46;81.95;95642.43;106521;1277;22535;-75
2023/02/23 01:27:04;;;;;;;10.60;6.00;;;;;;;-1.47;81.82;95643.61;106575;1277;25504;-75
2023/02/23 01:29:33;;;;;;;16.00;6.70;;;;;;;-1.42;82.16;95638.40;106311;1277;25646;-75
2023/02/23 01:32:01;;;;;;;17.10;6.60;;;;;;;-1.35;82.08;95640.17;106533;1277;25268;-74
2023/02/23 01:34:32;;;;;;;13.10;6.30;;;;;;;-1.26;82.05;95636.96;106652;1277;22516;-75
2023/02/23 01:37:00;;;;;;;12.20;6.60;;;;;;;-1.16;82.04;95637.06;106586;1277;25275;-74
2023/02/23 01:39:31;;;;;;;13.20;6.30;;;;;;;-1.08;81.89;95634.16;106764;1277;22521;-75
2023/02/23 01:42:00;;;;;;;13.10;6.60;;;;;;;-1.06;81.57;95634.35;106734;1277;24237;-75
2023/02/23 01:44:31;;;;;;;10.10;5.70;;;;;;;-1.01;81.66;95633.63;106674;1277;22530;-75
2023/02/23 01:46:59;;;;;;;11.70;5.70;;;;;;;-1.06;81.35;95636.11;106731;1277;24232;-75
2023/02/23 01:49:29;;;;;;;11.90;5.90;;;;;;;-1.14;81.86;95638.85;106699;1277;22540;-75
2023/02/23 01:52:03;;;;;;;10.20;6.00;;;;;;;-1.18;82.49;95639.06;106530;1277;24454;-75
2023/02/23 01:54:43;;;;;;;15.90;7.10;;;;;;;-1.15;82.56;95632.58;106558;1277;24356;-75
2023/02/23 01:57:13;;;;;;;11.90;6.10;;;;;;;-1.06;82.75;95635.41;106488;1277;24451;-75
2023/02/23 01:59:45;;;;;;;13.10;6.40;;;;;;;-1.01;81.98;95633.64;106531;1277;22539;-74
2023/02/23 02:02:17;;;;;;;8.40;5.10;;;;;;;-0.93;82.32;95632.31;106562;1277;22524;-75
2023/02/23 02:04:45;;;;;;;13.30;6.20;;;;;;;-1.00;81.02;95634.55;106478;1277;24738;-75
2023/02/23 02:07:27;;;;;;;10.00;5.10;;;;;;;-1.07;81.00;95635.21;106535;1277;26609;-75
2023/02/23 02:12:40;;;;;;;9.30;4.70;;;;;;;-1.16;80.77;95632.55;106486;1277;24321;-75
2023/02/23 02:15:16;;;;;;;12.40;4.90;;;;;;;-1.31;80.83;95633.72;106650;1277;24088;-75
2023/02/23 02:18:17;;;;;;;7.80;4.30;;;;;;;-1.42;80.73;95635.81;106536;1277;22650;-75
2023/02/23 02:21:03;;;;;;;9.90;4.30;;;;;;;-1.51;81.42;95634.54;106535;1277;22523;-76
2023/02/23 02:23:42;;;;;;;8.50;4.50;;;;;;;-1.62;81.09;95638.36;106557;1277;22762;-74
2023/02/23 02:26:25;;;;;;;7.10;4.00;;;;;;;-1.67;82.72;95639.58;106724;1277;22665;-75
2023/02/23 02:29:33;;;;;;;11.40;5.60;;;;;;;-1.71;82.17;95641.52;106704;1277;22645;-76
2023/02/23 02:32:39;;;;;;;10.50;5.90;;;;;;;-1.67;82.34;95639.93;106726;1277;25317;-74
2023/02/23 02:35:32;;;;;;;8.00;4.20;;;;;;;-1.64;82.27;95639.49;106522;1277;25265;-76
2023/02/23 02:38:04;;;;;;;9.90;5.00;;;;;;;-1.70;82.47;95636.56;106580;1277;24286;-75
2023/02/23 02:41:02;;;;;;;9.40;4.00;;;;;;;-1.70;82.73;95641.23;106523;1277;22760;-75
2023/02/23 02:43:58;;;;;;;11.90;5.30;;;;;;;-1.76;82.98;95640.02;106546;1277;25239;-75
2023/02/23 02:46:33;;;;;;;10.50;4.60;;;;;;;-1.77;83.33;95638.29;106536;1277;22688;-75
2023/02/23 02:49:02;;;;;;;11.00;4.90;;;;;;;-1.78;83.24;95640.13;106619;1277;22566;-75
2023/02/23 02:51:41;;;;;;;9.70;5.50;;;;;;;-1.81;83.19;95637.97;106730;1277;22516;-75
2023/02/23 02:54:24;;;;;;;8.10;4.30;;;;;;;-1.81;83.41;95641.60;106678;1277;25466;-75
2023/02/23 02:56:56;;;;;;;11.00;5.00;;;;;;;-1.85;83.96;95642.70;106498;1277;22483;-76
2023/02/23 04:18:36;;;;;;;9.00;3.90;;;;;;;-1.84;83.76;95652.02;106534;1277;22598;-75
2023/02/23 04:21:06;;;;;;;10.00;5.20;;;;;;;-1.92;83.02;95650.91;106550;1277;22586;-75
2023/02/23 04:23:36;;;;;;;11.90;4.80;;;;;;;-1.92;83.40;95649.02;106482;1277;22799;-75
2023/02/23 04:26:04;;;;;;;6.40;4.00;;;;;;;-1.91;83.43;95647.70;106545;1277;23145;-75
2023/02/23 04:28:32;;;;;;;10.30;5.30;;;;;;;-1.96;83.56;95647.72;106507;1277;25390;-75
2023/02/23 04:31:01;;;;;;;9.80;4.60;;;;;;;-2.01;83.59;95647.91;106503;1259;22520;-75
2023/02/23 04:33:29;;;;;;;8.80;4.80;;;;;;;-2.04;83.62;95644.02;106715;1277;23348;-74
2023/02/23 04:35:57;;;;;;;8.80;4.50;;;;;;;-2.01;83.61;95646.35;106596;1277;25359;-74
2023/02/23 04:38:25;;;;;;;7.10;4.90;;;;;;;-1.98;83.49;95647.65;106629;1277;22650;-74
2023/02/23 04:40:54;;;;;;;9.90;5.00;;;;;;;-1.97;83.21;95647.16;106672;1277;24235;-74
2023/02/23 04:43:22;;;;;;;12.20;5.00;;;;;;;-1.97;83.38;95648.39;106549;1277;25393;-74
2023/02/23 04:45:50;;;;;;;9.80;6.60;;;;;;;-1.99;83.98;95643.83;106576;1277;25402;-74
2023/02/23 04:48:18;;;;;;;14.40;6.40;;;;;;;-2.06;83.87;95643.80;106694;1277;24206;-74
2023/02/23 04:50:51;;;;;;;9.50;4.50;;;;;;;-2.10;83.88;95644.69;106565;1277;22542;-74
2023/02/23 04:53:19;;;;;;;13.60;4.30;;;;;;;-2.12;83.63;95641.89;106569;1277;25475;-74
2023/02/23 04:55:47;;;;;;;11.00;4.90;;;;;;;-2.13;83.37;95643.92;106558;1277;24386;-74
2023/02/23 04:58:16;;;;;;;9.90;5.30;;;;;;;-2.13;83.91;95648.41;106590;1277;22522;-73
2023/02/23 05:00:44;;;;;;;10.70;4.40;;;;;;;-2.16;84.47;95650.21;106587;1277;22790;-73
2023/02/23 05:03:12;;;;;;;11.50;4.80;;;;;;;-2.20;85.15;95650.11;106663;1277;25504;-74
2023/02/23 05:05:40;;;;;;;13.90;5.50;;;;;;;-2.21;85.44;95649.38;106514;1277;23946;-74
2023/02/23 05:08:09;;;;;;;11.90;5.80;;;;;;;-2.22;85.23;95650.53;106689;1277;25274;-74
2023/02/23 05:10:37;;;;;;;10.90;5.60;;;;;;;-2.21;84.96;95649.52;106397;1277;25279;-74
2023/02/23 05:13:07;;;;;;;11.60;5.50;;;;;;;-2.15;85.31;95650.39;106511;1277;25239;-74
2023/02/23 05:15:37;;;;;;;12.70;5.80;;;;;;;-2.14;84.97;95653.87;106709;1277;23004;-74
2023/02/23 05:18:06;;;;;;;9.80;5.40;;;;;;;-2.12;85.16;95651.71;106775;1277;22528;-74
2023/02/23 05:20:35;;;;;;;13.80;5.70;;;;;;;-2.08;85.16;95657.52;106545;1277;23006;-74
2023/02/23 05:23:03;;;;;;;11.90;5.20;;;;;;;-2.06;85.12;95662.23;106591;1277;22551;-74
2023/02/23 05:25:32;;;;;;;10.60;4.80;;;;;;;-2.02;84.63;95664.58;106423;1277;25237;-73
2023/02/23 05:28:00;;;;;;;9.10;4.60;;;;;;;-2.02;84.60;95666.14;106524;1275;22987;-74
2023/02/23 05:30:28;;;;;;;9.80;4.70;;;;;;;-1.96;85.00;95664.80;106626;1277;22524;-74
2023/02/23 05:32:56;;;;;;;10.80;4.80;;;;;;;-1.88;84.80;95662.45;106689;1277;24384;-73
2023/02/23 05:35:25;;;;;;;13.50;5.40;;;;;;;-1.77;84.96;95665.19;106545;1277;24096;-74
2023/02/23 05:37:53;;;;;;;13.40;5.20;;;;;;;-1.68;84.69;95667.01;106602;1277;22534;-74
2023/02/23 05:40:21;;;;;;;11.10;5.90;;;;;;;-1.65;84.75;95671.05;106515;1277;25473;-74
2023/02/23 05:42:49;;;;;;;13.10;5.80;;;;;;;-1.54;84.76;95665.34;106519;1277;23943;-73
2023/02/23 05:45:17;;;;;;;10.50;5.70;;;;;;;-1.47;84.01;95667.95;106523;1277;22531;-74
2023/02/23 05:47:45;;;;;;;9.60;4.60;;;;;;;-1.34;84.74;95670.90;106653;1277;24308;-74
2023/02/23 05:50:14;;;;;;;9.80;4.90;;;;;;;-1.20;85.03;95670.08;106571;1277;24269;-75
2023/02/23 05:52:43;;;;;;;9.60;5.00;;;;;;;-1.09;84.27;95676.23;106560;1277;22534;-75
2023/02/23 05:55:11;;;;;;;11.50;4.70;;;;;;;-1.17;82.87;95678.44;106689;1277;24202;-74
2023/02/23 05:57:40;;;;;;;13.70;5.30;;;;;;;-1.26;83.11;95679.75;106583;1277;24398;-75
2023/02/23 06:00:12;;;;;;;10.60;5.10;;;;;;;-1.28;83.24;95681.26;106527;1277;24218;-78
2023/02/23 06:02:40;;;;;;;10.00;4.70;;;;;;;-1.26;83.14;95682.53;106538;1277;24239;-79
2023/02/23 06:05:12;;;;;;;7.70;3.70;;;;;;;-1.21;83.35;95680.73;106628;1277;23908;-77
2023/02/23 06:07:40;;;;;;;7.90;4.30;;;;;;;-1.20;83.13;95680.11;106756;1277;24876;-71
2023/02/23 06:10:10;;;;;;;10.20;4.50;;;;;;;-1.17;83.50;95681.90;106722;1277;22528;-70
2023/02/23 06:12:38;;;;;;;16.20;6.60;;;;;;;-1.14;83.59;95679.05;106577;1277;22522;-81
2023/02/23 06:15:07;;;;;;;19.90;10.10;;;;;;;-1.20;83.69;95678.36;106556;1277;22527;-72
2023/02/23 06:17:36;;;;;;;25.50;14.30;;;;;;;-1.20;83.89;95679.91;106757;1277;25400;-79
2023/02/23 06:20:06;;;;;;;23.10;13.10;;;;;;;-1.21;83.63;95683.34;106463;1277;22548;-78
2023/02/23 06:22:34;;;;;;;26.60;13.90;;;;;;;-1.23;83.54;95682.08;106765;1277;22668;-74
2023/02/23 06:25:04;;;;;;;32.90;14.40;;;;;;;-1.22;84.60;95682.98;106721;1277;22523;-76
2023/02/23 06:27:32;;;;;;;26.20;12.90;;;;;;;-1.16;84.61;95683.13;106798;1277;25329;-81
2023/02/23 06:30:00;;;;;;;25.40;12.90;;;;;;;-1.10;84.96;95682.27;106504;1277;24371;-84
2023/02/23 06:32:28;;;;;;;24.20;13.70;;;;;;;-1.04;85.04;95684.14;106657;1277;22527;-75
2023/02/23 06:34:57;;;;;;;24.10;12.30;;;;;;;-0.98;84.93;95682.42;106488;1277;22639;-81
2023/02/23 06:37:25;;;;;;;18.60;12.20;;;;;;;-0.88;84.90;95681.64;106317;1277;24641;-76
2023/02/23 06:39:53;;;;;;;19.40;11.80;;;;;;;-0.79;84.94;95686.04;106541;1277;22650;-81
2023/02/23 06:42:21;;;;;;;18.40;10.90;;;;;;;-0.71;85.03;95684.85;106548;1277;22713;-76
2023/02/23 06:44:49;;;;;;;19.50;10.20;;;;;;;-0.64;84.98;95683.82;106526;1277;25322;-78
2023/02/23 06:47:18;;;;;;;19.80;9.90;;;;;;;-0.56;84.83;95683.86;106520;1277;24052;-77
2023/02/23 06:49:46;;;;;;;14.70;9.00;;;;;;;-0.48;84.58;95689.08;106497;1277;25478;-75
2023/02/23 06:52:14;;;;;;;15.50;8.90;;;;;;;-0.42;84.45;95688.54;106494;1277;24259;-72
2023/02/23 06:54:43;;;;;;;21.70;10.50;;;;;;;-0.37;84.59;95683.11;106483;1277;22534;-72
2023/02/23 06:57:11;;;;;;;21.90;12.40;;;;;;;-0.32;84.44;95686.20;106667;1277;24460;-78
2023/02/23 06:59:41;;;;;;;25.70;15.00;;;;;;;-0.27;84.36;95680.44;106600;1277;25329;-81
2023/02/23 07:02:11;;;;;;;29.40;15.90;;;;;;;-0.22;84.21;95682.98;106418;1277;22559;-77
2023/02/23 07:04:39;;;;;;;40.40;26.40;;;;;;;-0.17;84.19;95686.73;106397;1277;22527;-70
2023/02/23 07:07:08;;;;;;;35.30;19.00;;;;;;;-0.10;84.30;95685.67;106449;1277;22550;-72
2023/02/23 07:09:39;;;;;;;30.30;18.80;;;;;;;-0.05;84.27;95684.76;106365;1277;22872;-79
2023/02/23 07:12:08;;;;;;;20.20;13.60;;;;;;;0.04;84.36;95682.71;106410;1277;22636;-71
2023/02/23 07:14:36;;;;;;;19.00;11.20;;;;;;;0.15;84.16;95680.21;106457;1277;25354;-75
2023/02/23 07:17:04;;;;;;;21.90;12.20;;;;;;;0.28;84.00;95681.87;106719;1277;23893;-76
2023/02/23 07:19:34;;;;;;;21.10;11.40;;;;;;;0.41;84.09;95677.15;106608;1277;22656;-69
2023/02/23 07:22:03;;;;;;;18.60;11.60;;;;;;;0.55;83.96;95677.98;106516;1277;22643;-69
2023/02/23 07:24:32;;;;;;;21.50;12.40;;;;;;;0.70;83.69;95674.65;106759;1277;22653;-69
2023/02/23 07:27:00;;;;;;;18.90;11.50;;;;;;;0.84;83.46;95671.11;106482;1263;23138;-75
2023/02/23 07:29:28;;;;;;;21.90;11.60;;;;;;;0.97;83.36;95668.27;106455;1277;22522;-69
2023/02/23 07:31:56;;;;;;;22.10;12.20;;;;;;;1.13;83.16;95667.17;106527;1277;22526;-67
2023/02/23 07:34:25;;;;;;;21.90;11.50;;;;;;;1.29;82.59;95661.41;106549;1277;22586;-67
2023/02/23 07:36:53;;;;;;;18.20;10.40;;;;;;;1.44;82.54;95660.81;106635;1277;22546;-71
2023/02/23 07:39:21;;;;;;;21.10;11.10;;;;;;;1.65;82.39;95658.20;106572;1277;22533;-73
2023/02/23 07:41:49;;;;;;;20.40;10.70;;;;;;;1.87;82.43;95657.54;106575;1277;22527;-79
2023/02/23 07:44:19;;;;;;;19.70;11.10;;;;;;;2.10;82.31;95654.60;106595;1277;22746;-74
2023/02/23 07:46:48;;;;;;;22.50;11.30;;;;;;;2.31;81.67;95647.95;106586;1277;22524;-79
2023/02/23 07:49:16;;;;;;;18.00;11.40;;;;;;;2.52;81.48;95648.23;106566;1277;22590;-76
2023/02/23 07:51:44;;;;;;;20.30;11.40;;;;;;;2.77;80.91;95645.95;106441;1277;24210;-72
2023/02/23 07:54:13;;;;;;;21.90;11.30;;;;;;;2.89;79.19;95642.63;106567;1277;22525;-70
2023/02/23 07:56:42;;;;;;;22.90;13.00;;;;;;;2.99;78.61;95640.30;106642;1277;22543;-70
2023/02/23 07:59:10;;;;;;;24.90;11.40;;;;;;;3.17;78.47;95642.93;106354;1277;23886;-69
2023/02/23 08:01:39;;;;;;;27.70;10.70;;;;;;;3.35;77.61;95640.52;106451;1277;22715;-71
2023/02/23 08:04:07;;;;;;;47.10;20.30;;;;;;;3.58;77.70;95638.81;106675;1277;25389;-70
2023/02/23 08:06:35;;;;;;;29.40;14.20;;;;;;;3.78;77.58;95642.47;106509;1277;22565;-69
2023/02/23 08:09:04;;;;;;;19.10;9.00;;;;;;;4.01;76.56;95638.83;106501;1277;23953;-69
2023/02/23 08:11:32;;;;;;;45.60;25.00;;;;;;;4.23;75.79;95634.45;106538;1277;25315;-70
2023/02/23 08:14:01;;;;;;;37.10;18.40;;;;;;;4.44;75.58;95631.61;106507;1277;25406;-69
2023/02/23 08:16:30;;;;;;;164.20;80.70;;;;;;;4.62;73.57;95633.63;106444;1277;22576;-75
2023/02/23 08:18:59;;;;;;;30.00;19.30;;;;;;;4.68;72.25;95632.80;106335;1277;22527;-71
2023/02/23 08:21:29;;;;;;;22.80;11.70;;;;;;;4.75;72.76;95634.73;106683;1277;24275;-80
2023/02/23 08:23:57;;;;;;;13.10;7.30;;;;;;;4.85;72.72;95634.60;106616;1277;25406;-71
2023/02/23 08:26:26;;;;;;;10.00;6.30;;;;;;;4.93;71.27;95634.98;106557;1277;22792;-73
2023/02/23 08:28:55;;;;;;;11.40;5.90;;;;;;;5.08;72.11;95631.37;106570;1277;25170;-77
2023/02/23 08:31:23;;;;;;;10.20;4.60;;;;;;;5.25;71.79;95630.02;106487;1277;25309;-78
2023/02/23 08:33:52;;;;;;;10.30;4.90;;;;;;;5.42;71.18;95631.29;106650;1277;23017;-74
2023/02/23 08:36:21;;;;;;;11.60;4.60;;;;;;;5.58;70.75;95625.38;106501;1277;25347;-68
2023/02/23 08:38:49;;;;;;;11.90;5.00;;;;;;;5.73;69.79;95627.48;106595;1277;22530;-74
2023/02/23 08:41:17;;;;;;;11.90;5.50;;;;;;;5.89;70.20;95625.23;106486;1277;22526;-72
2023/02/23 08:43:47;;;;;;;9.90;4.70;;;;;;;6.02;69.86;95620.71;106498;1277;24279;-78
2023/02/23 08:46:18;;;;;;;11.50;5.30;;;;;;;6.14;70.18;95622.45;106541;1277;25354;-79
2023/02/23 08:48:47;;;;;;;13.70;8.80;;;;;;;6.23;67.86;95621.39;106647;1277;26653;-76
2023/02/23 08:51:15;;;;;;;16.90;6.20;;;;;;;6.29;67.49;95623.66;106528;1277;25400;-82
2023/02/23 08:53:44;;;;;;;8.30;5.00;;;;;;;6.39;68.01;95627.13;106642;1278;22543;-75
2023/02/23 08:56:12;;;;;;;12.90;7.70;;;;;;;6.47;66.33;95624.84;106595;1277;24228;-75
2023/02/23 08:58:41;;;;;;;8.60;6.00;;;;;;;6.47;65.16;95624.48;106657;1277;23150;-84
2023/02/23 09:01:18;;;;;;;6.90;4.80;;;;;;;6.53;65.46;95628.31;106706;1269;23880;-81
2023/02/23 09:03:47;;;;;;;9.60;5.70;;;;;;;6.61;65.48;95624.98;106255;1277;672819;-70
2023/02/23 09:06:19;;;;;;;10.90;6.10;;;;;;;6.71;64.82;95623.91;106547;1277;22544;-78
2023/02/23 09:08:48;;;;;;;9.50;5.50;;;;;;;6.82;64.44;95628.06;106413;1277;22523;-77
2023/02/23 09:11:16;;;;;;;13.50;5.20;;;;;;;6.89;64.38;95625.24;106371;1278;22583;-74
2023/02/23 09:13:45;;;;;;;10.20;4.70;;;;;;;6.95;63.28;95628.90;106642;1277;22772;-75
2023/02/23 09:16:14;;;;;;;10.50;5.20;;;;;;;7.07;62.88;95630.41;106737;1277;24275;-68
2023/02/23 09:18:42;;;;;;;9.60;5.00;;;;;;;7.21;63.21;95626.85;106484;1277;24220;-74
2023/02/23 09:21:19;;;;;;;7.70;5.00;;;;;;;7.35;63.63;95622.39;106499;1278;25332;-73
2023/02/23 09:23:50;;;;;;;8.10;4.60;;;;;;;7.47;62.77;95625.84;106543;1277;24281;-73
2023/02/23 09:26:19;;;;;;;10.10;5.30;;;;;;;7.57;62.43;95625.77;106634;1277;25357;-73
2023/02/23 09:28:49;;;;;;;12.10;5.70;;;;;;;7.64;61.96;95623.98;106543;1277;22604;-75
2023/02/23 09:31:21;;;;;;;9.60;5.40;;;;;;;7.76;61.50;95627.73;106745;1277;25341;-77
2023/02/23 09:33:50;;;;;;;10.20;5.10;;;;;;;7.87;61.43;95629.94;106627;1277;22530;-72
2023/02/23 09:36:24;;;;;;;9.30;5.40;;;;;;;8.04;61.23;95623.85;106474;1277;24370;-70
2023/02/23 09:38:55;;;;;;;15.10;7.30;;;;;;;8.05;58.15;95621.04;106456;1269;22536;-76
2023/02/23 09:41:53;;;;;;;10.20;5.20;;;;;;;8.10;59.39;95622.58;106581;1269;22546;-70
2023/02/23 09:44:44;;;;;;;13.10;5.50;;;;;;;8.18;58.99;95623.73;106338;1277;24993;-74
2023/02/23 09:47:29;;;;;;;11.60;5.20;;;;;;;8.17;57.60;95624.63;106521;1277;22562;-73
2023/02/23 09:50:01;;;;;;;11.00;6.00;;;;;;;8.17;57.69;95623.73;106421;1269;22523;-77
2023/02/23 09:52:41;;;;;;;12.10;5.50;;;;;;;8.20;58.13;95624.93;106872;1276;22520;-71
2023/02/23 09:55:12;;;;;;;12.70;6.00;;;;;;;8.29;58.38;95626.43;106606;1276;22798;-75
2023/02/23 09:57:47;;;;;;;9.00;5.10;;;;;;;8.39;58.32;95623.20;106509;1276;22524;-77
2023/02/23 10:00:26;;;;;;;9.60;4.60;;;;;;;8.50;57.52;95621.36;106307;1276;25325;-75
2023/02/23 10:03:14;;;;;;;8.70;5.50;;;;;;;8.60;57.49;95621.59;106410;1276;23043;-76
2023/02/23 10:05:49;;;;;;;8.20;4.70;;;;;;;8.72;57.51;95621.13;106875;1276;22538;-79
2023/02/23 10:08:35;;;;;;;10.90;4.50;;;;;;;8.77;56.58;95617.92;106595;1276;25924;-78
2023/02/23 10:11:13;;;;;;;12.70;5.70;;;;;;;8.81;57.19;95619.27;106519;1276;24301;-78
2023/02/23 10:14:00;;;;;;;10.00;4.50;;;;;;;8.93;57.16;95615.80;106776;1276;22550;-77
2023/02/23 10:16:59;;;;;;;10.30;5.40;;;;;;;9.08;56.39;95610.88;106560;1276;25616;-73
2023/02/23 10:19:56;;;;;;;7.80;4.80;;;;;;;9.18;56.22;95610.93;106427;1276;22639;-76
2023/02/23 10:22:25;;;;;;;11.50;5.30;;;;;;;9.29;54.86;95614.81;106504;1276;22519;-78
2023/02/23 10:25:05;;;;;;;9.50;5.10;;;;;;;9.44;55.60;95609.35;106631;1254;24197;-77
2023/02/23 10:27:43;;;;;;;11.40;5.20;;;;;;;9.59;55.10;95602.81;106643;1276;23158;-79
2023/02/23 10:30:22;;;;;;;12.90;5.40;;;;;;;9.71;55.30;95602.98;106622;1276;22891;-75
2023/02/23 10:33:15;;;;;;;8.80;4.70;;;;;;;9.84;55.04;95597.52;106511;1276;22533;-79
2023/02/23 10:35:44;;;;;;;8.20;4.50;;;;;;;9.91;53.66;95596.54;106672;1276;25268;-78
2023/02/23 10:38:17;;;;;;;8.00;4.80;;;;;;;10.02;54.31;95594.61;106618;1276;24744;-79
2023/02/23 10:40:52;;;;;;;11.20;4.60;;;;;;;10.17;54.17;95588.36;106610;1276;23925;-78
2023/02/23 10:43:21;;;;;;;8.60;5.00;;;;;;;10.35;52.85;95585.27;106684;1263;24410;-78
2023/02/23 10:45:51;;;;;;;8.30;4.20;;;;;;;10.46;52.30;95578.92;106567;1276;22531;-78
2023/02/23 10:48:27;;;;;;;6.90;4.20;;;;;;;10.58;52.12;95577.66;106476;1276;25207;-75
2023/02/23 10:51:01;;;;;;;6.40;3.90;;;;;;;10.87;52.69;95572.69;107012;1276;24255;-74
2023/02/23 10:53:34;;;;;;;7.60;4.60;;;;;;;11.24;52.13;95573.15;106602;1276;22527;-73
2023/02/23 10:56:16;;;;;;;8.10;4.90;;;;;;;11.57;52.04;95568.37;106587;1276;22941;-72
2023/02/23 10:58:58;;;;;;;11.20;5.00;;;;;;;11.90;51.12;95563.04;106592;1276;25356;-72
2023/02/23 11:01:44;;;;;;;8.70;4.90;;;;;;;12.00;48.49;95558.21;106569;1276;22517;-73
2023/02/23 11:04:33;;;;;;;6.60;4.50;;;;;;;12.19;48.23;95553.33;106571;1276;22647;-72
2023/02/23 11:07:17;;;;;;;7.40;4.40;;;;;;;12.25;47.68;95550.52;106601;1276;25262;-76
2023/02/23 11:09:45;;;;;;;;;;;;;;;12.42;47.23;95551.84;106606;1276;25234;-76
2023/02/23 11:12:48;;;;;;;9.30;4.20;;;;;;;12.53;46.68;95547.32;106563;1276;24258;-73
2023/02/23 11:15:28;;;;;;;8.20;4.70;;;;;;;12.91;46.68;95541.34;106636;1276;22520;-74
2023/02/23 11:18:23;;;;;;;8.90;4.40;;;;;;;13.06;46.01;95541.79;106659;1276;24199;-75
2023/02/23 11:20:52;;;;;;;7.10;4.50;;;;;;;13.12;45.99;95542.64;106627;1276;24362;-73
2023/02/23 11:23:28;;;;;;;9.10;4.80;;;;;;;12.95;45.20;95541.75;106548;1276;24360;-74
2023/02/23 11:26:00;;;;;;;12.40;5.40;;;;;;;13.18;46.08;95542.69;106718;1276;25326;-74
2023/02/23 11:28:36;;;;;;;7.30;5.00;;;;;;;13.52;45.83;95536.55;106990;1276;24089;-74
2023/02/23 11:31:19;;;;;;;9.60;5.10;;;;;;;13.78;44.88;95537.33;106621;1276;22538;-75
2023/02/23 11:33:51;;;;;;;8.60;5.00;;;;;;;13.95;44.26;95536.60;106594;1276;22636;-75
2023/02/23 11:36:22;;;;;;;8.90;5.10;;;;;;;14.09;43.77;95537.02;106602;1276;24451;-73
2023/02/23 11:39:16;;;;;;;9.20;5.20;;;;;;;13.99;43.85;95538.41;106548;1276;24228;-72
2023/02/23 11:41:44;;;;;;;9.30;5.60;;;;;;;14.02;43.36;95536.36;106778;1276;22672;-73
2023/02/23 11:44:21;;;;;;;9.60;5.60;;;;;;;13.85;43.88;95536.93;106585;1276;24043;-71
2023/02/23 11:46:51;;;;;;;10.70;5.00;;;;;;;13.86;44.23;95534.44;106621;1276;22523;-73
2023/02/23 11:49:32;;;;;;;9.40;5.30;;;;;;;13.80;44.27;95531.95;106599;1276;25617;-73
2023/02/23 11:52:01;;;;;;;9.10;5.60;;;;;;;13.84;44.51;95533.23;106601;1276;23802;-73
2023/02/23 11:54:33;;;;;;;7.80;5.10;;;;;;;13.85;43.48;95533.02;106573;1276;23745;-73
2023/02/23 11:57:01;;;;;;;10.00;5.10;;;;;;;13.87;43.63;95528.55;106650;1276;22539;-74
2023/02/23 11:59:37;;;;;;;8.20;5.00;;;;;;;13.76;43.83;95531.73;106650;1276;22539;-74
2023/02/23 12:02:25;;;;;;;8.40;4.60;;;;;;;13.60;43.73;95530.30;106799;1276;24209;-73
2023/02/23 12:05:06;;;;;;;8.40;5.00;;;;;;;13.68;43.49;95527.92;106550;1276;22542;-73
2023/02/23 12:07:50;;;;;;;9.70;5.10;;;;;;;13.74;43.79;95529.13;106746;1276;25510;-75
2023/02/23 12:10:21;;;;;;;12.40;7.00;;;;;;;13.79;44.26;95527.75;106720;1276;22643;-74
2023/02/23 12:13:00;;;;;;;10.40;5.60;;;;;;;14.01;44.06;95525.59;106886;1276;22544;-74
2023/02/23 12:15:47;;;;;;;9.10;5.30;;;;;;;14.11;43.01;95523.87;106562;1276;26649;-74
2023/02/23 12:18:52;;;;;;;11.20;7.30;;;;;;;14.11;43.46;95519.96;106512;1276;22542;-74
2023/02/23 12:21:35;;;;;;;7.40;5.10;;;;;;;13.84;43.76;95526.17;106656;1276;23912;-74
2023/02/23 12:24:41;;;;;;;8.20;4.70;;;;;;;13.90;44.29;95526.50;106575;1274;25210;-75
2023/02/23 12:27:17;;;;;;;8.90;5.00;;;;;;;14.06;43.69;95524.39;106628;1276;24198;-74
2023/02/23 12:29:52;;;;;;;6.90;5.00;;;;;;;14.13;43.04;95524.52;106590;1276;22529;-74
2023/02/23 12:32:27;;;;;;;8.40;5.30;;;;;;;14.03;43.44;95519.35;106925;1276;22527;-73
2023/02/23 12:35:21;;;;;;;8.80;5.20;;;;;;;13.78;43.13;95516.27;106745;1276;24438;-73
2023/02/23 12:37:58;;;;;;;8.60;5.30;;;;;;;13.94;44.30;95514.02;106402;1276;25451;-75
2023/02/23 12:40:31;;;;;;;10.00;6.00;;;;;;;14.15;43.79;95513.98;106641;1276;25457;-73
2023/02/23 12:43:24;;;;;;;9.10;6.50;;;;;;;14.34;42.66;95511.42;106622;1276;22590;-75
2023/02/23 12:46:19;;;;;;;11.10;5.90;;;;;;;14.54;42.22;95508.63;106579;1276;22639;-75
2023/02/23 12:49:06;;;;;;;9.90;4.70;;;;;;;14.75;42.09;95508.02;106649;1276;22646;-73
2023/02/23 12:51:40;;;;;;;8.30;5.10;;;;;;;15.13;41.41;95504.15;106568;1276;22529;-74
2023/02/23 12:54:10;;;;;;;;;;;;;;;15.48;41.59;95503.88;106636;1276;25360;-75
2023/02/23 12:57:02;;;;;;;7.70;4.60;;;;;;;15.65;39.71;95500.36;106567;1276;22627;-74
2023/02/23 12:59:47;;;;;;;8.30;5.00;;;;;;;15.90;39.41;95497.27;106913;1276;22635;-75
2023/02/23 13:03:07;;;;;;;7.30;4.50;;;;;;;15.85;39.04;95499.22;106839;1276;25509;-74
2023/02/23 13:05:40;;;;;;;10.30;5.80;;;;;;;15.61;39.71;95499.80;106717;1276;22531;-74
2023/02/23 13:08:22;;;;;;;8.20;5.10;;;;;;;15.69;39.40;95498.09;106589;1276;26509;-74
2023/02/23 13:11:08;;;;;;;8.20;5.20;;;;;;;15.79;38.87;95494.87;106591;1276;22639;-74
2023/02/23 13:14:00;;;;;;;8.70;5.60;;;;;;;15.72;39.00;95496.55;106594;1276;22528;-74